»·PEaware :: N7969 KIYK-KMYF

N7969 :: KIYK-KMYF

FLIGHT INFORMATION

Flight Status: Arrived
Operator: Privately registered:
United States
More flights under this callsign
Pilot: Diana Atalanta G. (28375)
Aircraft: PIPER PA-31/31P NAVAJO CHIEFTAIN
(PA31)
More flights by this aircraft type
Origin: KIYK Inyokern
United States
Destination: KMYF Montgomery
United States
More flights between these airports :: More routes between these airports
Route: LHS HDF JLI BLLYJ
File this flight plan on PilotEdge
Remarks: NONE
Altitude:
(Current/Filed)
11,500ft
Speed:
(Current/Filed)
180kts
Departed: 19-Nov-23 02:29 PM
Arrived: 19-Nov-23 03:31 PM
Distance/Time
Traveled:
174nm/1:02
Distance/Time
To Go:
Arrived

Flight Plot

Page will automatically refresh every two minutes.

Flight plan parsing failed; only flown route is shown


Map Options




Map Legend


Flown Route
Filed Route
Departure Airport
Arrival Airport
Navaid (VOR, NDB)
Fix

Horizontal Profiles

Position Reports

Time Latitude Longitude Heading Altitude Ground
Speed
19-Nov-23 14:27 35.065198 -118.287497 227 10607ft 192kts
19-Nov-23 14:28 35.015352 -118.330543 222 11029ft 196kts
19-Nov-23 14:29 34.974867 -118.358197 221 12077ft 186kts
19-Nov-23 14:30 34.928147 -118.390518 224 12501ft 211kts
19-Nov-23 14:31 34.876402 -118.425568 222 12480ft 205kts
19-Nov-23 14:32 34.826212 -118.459731 223 12525ft 207kts
19-Nov-23 14:33 34.778054 -118.496582 226 12526ft 203kts
19-Nov-23 14:34 34.730347 -118.533535 226 12524ft 204kts
19-Nov-23 14:35 34.686781 -118.551079 174 12515ft 237kts
19-Nov-23 14:36 34.638477 -118.508025 140 12463ft 247kts
19-Nov-23 14:37 34.591963 -118.448460 121 12437ft 246kts
19-Nov-23 14:38 34.552721 -118.381130 123 12469ft 245kts
19-Nov-23 14:39 34.512139 -118.312781 122 12033ft 259kts
19-Nov-23 14:40 34.479574 -118.253418 123 11464ft 254kts
19-Nov-23 14:41 34.441365 -118.190231 125 11461ft 240kts
19-Nov-23 14:42 34.400818 -118.125995 125 11460ft 240kts
19-Nov-23 14:43 34.361663 -118.063929 125 11434ft 246kts
19-Nov-23 14:44 34.320371 -117.998423 125 11421ft 246kts
19-Nov-23 14:45 34.293689 -117.959222 130 11430ft 242kts
19-Nov-23 14:46 34.250891 -117.900381 130 11423ft 241kts
19-Nov-23 14:47 34.206728 -117.839656 130 11415ft 241kts
19-Nov-23 14:48 34.163480 -117.780126 130 11410ft 241kts
19-Nov-23 14:49 34.119897 -117.718867 128 11404ft 241kts
19-Nov-23 14:50 34.082467 -117.662561 126 11403ft 240kts
19-Nov-23 14:51 34.042349 -117.598502 125 11489ft 236kts
19-Nov-23 14:52 34.001897 -117.535274 125 11522ft 239kts
19-Nov-23 14:53 33.965122 -117.478115 127 11499ft 239kts
19-Nov-23 14:54 33.928381 -117.423386 127 11454ft 235kts
19-Nov-23 14:55 33.886404 -117.360256 127 11496ft 247kts
19-Nov-23 14:56 33.845904 -117.299247 127 11509ft 245kts
19-Nov-23 14:57 33.800160 -117.238909 135 11551ft 244kts
19-Nov-23 14:58 33.763504 -117.187885 128 11517ft 246kts
19-Nov-23 14:59 33.729648 -117.141411 142 11482ft 246kts
19-Nov-23 15:00 33.705046 -117.117105 142 11563ft 243kts
19-Nov-23 15:01 33.705046 -117.117105 142 11563ft 243kts
19-Nov-23 15:02 33.705046 -117.117105 142 11563ft 243kts
19-Nov-23 15:03 33.705046 -117.117105 142 11563ft 243kts
19-Nov-23 15:04 33.702476 -117.114571 142 11578ft 244kts
19-Nov-23 15:05 33.658918 -117.071918 144 11486ft 252kts
19-Nov-23 15:06 33.604678 -117.021716 144 11505ft 244kts
19-Nov-23 15:07 33.552360 -116.973676 145 11505ft 244kts
19-Nov-23 15:08 33.498452 -116.924431 145 11503ft 244kts
19-Nov-23 15:09 33.444892 -116.875560 146 11485ft 244kts
19-Nov-23 15:10 33.398545 -116.834371 146 11465ft 250kts
19-Nov-23 15:11 33.344222 -116.785954 147 11063ft 252kts
19-Nov-23 15:12 33.291393 -116.736250 142 11081ft 253kts
19-Nov-23 15:13 33.240053 -116.676637 140 10010ft 258kts
19-Nov-23 15:14 33.186171 -116.625799 145 9342ft 237kts
19-Nov-23 15:15 33.130993 -116.600276 199 9432ft 220kts
19-Nov-23 15:16 33.078420 -116.619768 213 9452ft 206kts
19-Nov-23 15:17 33.038291 -116.642527 218 9483ft 200kts
19-Nov-23 15:18 32.990588 -116.673722 215 9457ft 213kts
19-Nov-23 15:19 32.940815 -116.705709 220 9567ft 198kts
19-Nov-23 15:20 32.898364 -116.732573 214 9465ft 209kts
19-Nov-23 15:21 32.846226 -116.762461 214 8082ft 216kts
19-Nov-23 15:22 32.822617 -116.816140 279 4699ft 194kts
19-Nov-23 15:23 32.825305 -116.870629 274 4466ft 153kts
19-Nov-23 15:24 32.824324 -116.919590 272 4524ft 141kts
19-Nov-23 15:25 32.822088 -116.967958 272 4534ft 150kts
19-Nov-23 15:26 32.815849 -117.017116 245 4557ft 171kts
19-Nov-23 15:27 32.793938 -117.063309 247 3590ft 148kts
19-Nov-23 15:28 32.801876 -117.103221 296 1172ft 113kts
19-Nov-23 15:29 32.812137 -117.129525 294 481ft 73kts
19-Nov-23 15:30 32.815980 -117.139082 293 431ft 7kts
19-Nov-23 15:31 32.815599 -117.141576 245 431ft 8kts
19-Nov-23 15:32 32.814208 -117.141301 211 431ft 4kts

Navigation Log

Ident Type
Flight plan parsing failed, navigation log unavailable